logo
Search for airport 
image banner adimage banner adimage banner ad
image banner ad

MRLM - Limon Intl

Located in Limon, Costa Rica

ICAO - MRLM, IATA - LIO

Data provided by Airmate  

General information

Coordinates: N9°57'28" W83°1'19"
Elevation is 7 feet MSL.
 
View others Airports in Limon

Operational data

Special qualification required
Current time UTC:
Current local time:
Weather
TAF: MRLM 262300Z 2700/2724 08005KT 9999 SCT020 TX32/2721Z TN24/2711Z BECMG 2702/2704 24005KT TEMPO 2708/2712 DZ FEW020TCU FM271600 07006KT CAVOK
View NOTAMs / SUP AIP / TFR affecting this airport [VIEW]
Communications frequencies: [VIEW]

Runways:

RWY identifierQFULength (ft)Width (ft)SurfaceLDA (ft)
15144°590698UNK
33324°590698UNK

Airport contact information

Address: Limon Costa Rica

Satellite view of MRLM